Hlavní strana
METAR-TAF:

METAR-TAF

Letiště :

Sveg, Švédsko

zeměpisná šířka: 62-02-52N, zeměpisná délka: 014-25-22E, výška: 359 m

Aktuální stav počasí

Zpráva byla vytvořena před 31 minutami, v 02:20 UTC
Jihojihovýchodní vítr 5 kt, proměnlivý mezi východojihovýchodním a jižním
Teplota 13°C
Vlhkost vzduchu 94%
Tlak 1001 hPa
Viditelnost 10 km a více

METAR: ESND 180220Z AUTO 15005KT 120V190 9999 BKN082/// BKN180/// OVC210/// 13/12 Q1001

Čas: 04:51 (02:51 UTC)


TAF: chybějící

Stav a předpovědi počasí z více než 4 000 letišť (zprávy METAR a TAF).

Červené a žluté tečky na mapě představují dostupné meteorologické stanice.

Když kurzor umístíte na tečku, zobrazí se název stanice.

Pak kliknutím zobrazíte stav a předpověď počasí.

Chcete-li změnit mapu, kliknutím na zelené tlačítko se znaménkem +mapu přiblížíte, kliknutím na zelené tlačítko se znaménkem – mapu oddálíte a kliknutím na zelené šipky přejdete na sousední mapy.


METAR-TAF: